sensor_id;sensor_type;location;lat;lon;timestamp;temperature;humidity
2579;DHT22;1299;48.282;14.398;2024-03-08T00:02:08;4.10;99.90
2579;DHT22;1299;48.282;14.398;2024-03-08T00:04:35;4.00;99.90
2579;DHT22;1299;48.282;14.398;2024-03-08T00:07:02;4.10;99.90
2579;DHT22;1299;48.282;14.398;2024-03-08T00:09:29;4.00;99.90
2579;DHT22;1299;48.282;14.398;2024-03-08T00:11:56;4.00;99.90
2579;DHT22;1299;48.282;14.398;2024-03-08T00:14:25;4.00;99.90
2579;DHT22;1299;48.282;14.398;2024-03-08T00:16:52;3.90;99.90
2579;DHT22;1299;48.282;14.398;2024-03-08T00:19:20;3.80;99.90
2579;DHT22;1299;48.282;14.398;2024-03-08T00:21:47;3.90;99.90
2579;DHT22;1299;48.282;14.398;2024-03-08T00:24:15;3.80;99.90
2579;DHT22;1299;48.282;14.398;2024-03-08T00:26:42;3.80;99.90
2579;DHT22;1299;48.282;14.398;2024-03-08T00:29:09;3.80;99.90
2579;DHT22;1299;48.282;14.398;2024-03-08T00:31:37;3.70;99.90
2579;DHT22;1299;48.282;14.398;2024-03-08T00:34:04;3.70;99.90
2579;DHT22;1299;48.282;14.398;2024-03-08T00:36:32;3.70;99.90
2579;DHT22;1299;48.282;14.398;2024-03-08T00:38:59;3.80;99.90
2579;DHT22;1299;48.282;14.398;2024-03-08T00:41:28;3.80;99.90
2579;DHT22;1299;48.282;14.398;2024-03-08T00:43:55;3.60;99.90
2579;DHT22;1299;48.282;14.398;2024-03-08T00:46:22;3.60;99.90
2579;DHT22;1299;48.282;14.398;2024-03-08T00:48:50;3.60;99.90
2579;DHT22;1299;48.282;14.398;2024-03-08T00:51:17;3.60;99.90
2579;DHT22;1299;48.282;14.398;2024-03-08T00:53:44;3.80;99.90
2579;DHT22;1299;48.282;14.398;2024-03-08T00:56:12;3.90;99.90
2579;DHT22;1299;48.282;14.398;2024-03-08T00:58:39;3.90;99.90
2579;DHT22;1299;48.282;14.398;2024-03-08T01:01:07;3.70;99.90
2579;DHT22;1299;48.282;14.398;2024-03-08T01:03:36;3.90;99.90
2579;DHT22;1299;48.282;14.398;2024-03-08T01:06:04;3.80;99.90
2579;DHT22;1299;48.282;14.398;2024-03-08T01:08:31;4.00;99.90
2579;DHT22;1299;48.282;14.398;2024-03-08T01:10:58;4.10;99.90
2579;DHT22;1299;48.282;14.398;2024-03-08T01:13:26;4.30;99.90
2579;DHT22;1299;48.282;14.398;2024-03-08T01:15:53;4.30;99.90
2579;DHT22;1299;48.282;14.398;2024-03-08T01:18:20;4.30;99.90
2579;DHT22;1299;48.282;14.398;2024-03-08T01:20:47;4.30;99.90
2579;DHT22;1299;48.282;14.398;2024-03-08T01:23:15;4.20;99.90
2579;DHT22;1299;48.282;14.398;2024-03-08T01:25:42;4.30;99.90
2579;DHT22;1299;48.282;14.398;2024-03-08T01:28:09;4.40;99.90
2579;DHT22;1299;48.282;14.398;2024-03-08T01:30:36;4.40;99.90
2579;DHT22;1299;48.282;14.398;2024-03-08T01:33:04;4.30;99.90
2579;DHT22;1299;48.282;14.398;2024-03-08T01:35:31;4.40;99.90
2579;DHT22;1299;48.282;14.398;2024-03-08T01:37:58;4.40;99.90
2579;DHT22;1299;48.282;14.398;2024-03-08T01:40:27;4.30;99.90
2579;DHT22;1299;48.282;14.398;2024-03-08T01:42:55;4.10;99.90
2579;DHT22;1299;48.282;14.398;2024-03-08T01:45:22;4.20;99.90
2579;DHT22;1299;48.282;14.398;2024-03-08T01:47:50;4.20;99.90
2579;DHT22;1299;48.282;14.398;2024-03-08T01:50:17;3.70;99.90
2579;DHT22;1299;48.282;14.398;2024-03-08T01:52:45;3.90;99.90
2579;DHT22;1299;48.282;14.398;2024-03-08T01:55:13;3.60;99.90
2579;DHT22;1299;48.282;14.398;2024-03-08T01:57:43;3.80;99.90
2579;DHT22;1299;48.282;14.398;2024-03-08T02:00:11;3.90;99.90
2579;DHT22;1299;48.282;14.398;2024-03-08T02:02:42;4.00;99.90
2579;DHT22;1299;48.282;14.398;2024-03-08T02:05:10;4.00;99.90
2579;DHT22;1299;48.282;14.398;2024-03-08T02:07:37;4.00;99.90
2579;DHT22;1299;48.282;14.398;2024-03-08T02:10:05;4.00;99.90
2579;DHT22;1299;48.282;14.398;2024-03-08T02:12:32;4.10;99.90
2579;DHT22;1299;48.282;14.398;2024-03-08T02:15:01;4.00;99.90
2579;DHT22;1299;48.282;14.398;2024-03-08T02:17:28;4.00;99.90
2579;DHT22;1299;48.282;14.398;2024-03-08T02:19:56;4.10;99.90
2579;DHT22;1299;48.282;14.398;2024-03-08T02:22:24;4.10;99.90
2579;DHT22;1299;48.282;14.398;2024-03-08T02:24:52;4.10;99.90
2579;DHT22;1299;48.282;14.398;2024-03-08T02:27:23;4.20;99.90
2579;DHT22;1299;48.282;14.398;2024-03-08T02:29:51;4.10;99.90
2579;DHT22;1299;48.282;14.398;2024-03-08T02:32:22;3.90;99.90
2579;DHT22;1299;48.282;14.398;2024-03-08T02:34:49;3.90;99.90
2579;DHT22;1299;48.282;14.398;2024-03-08T02:37:16;3.90;99.90
2579;DHT22;1299;48.282;14.398;2024-03-08T02:39:45;3.80;99.90
2579;DHT22;1299;48.282;14.398;2024-03-08T02:42:12;3.70;99.90
2579;DHT22;1299;48.282;14.398;2024-03-08T02:44:42;3.80;99.90
2579;DHT22;1299;48.282;14.398;2024-03-08T02:47:11;3.80;99.90
2579;DHT22;1299;48.282;14.398;2024-03-08T02:49:38;3.70;99.90
2579;DHT22;1299;48.282;14.398;2024-03-08T02:52:05;3.70;99.90
2579;DHT22;1299;48.282;14.398;2024-03-08T02:54:33;3.70;99.90
2579;DHT22;1299;48.282;14.398;2024-03-08T02:57:02;3.80;99.90
2579;DHT22;1299;48.282;14.398;2024-03-08T02:59:29;3.90;99.90
2579;DHT22;1299;48.282;14.398;2024-03-08T03:01:56;3.80;99.90
2579;DHT22;1299;48.282;14.398;2024-03-08T03:04:24;3.80;99.90
2579;DHT22;1299;48.282;14.398;2024-03-08T03:06:51;3.80;99.90
2579;DHT22;1299;48.282;14.398;2024-03-08T03:09:19;3.70;99.90
2579;DHT22;1299;48.282;14.398;2024-03-08T03:11:49;3.80;99.90
2579;DHT22;1299;48.282;14.398;2024-03-08T03:14:18;3.60;99.90
2579;DHT22;1299;48.282;14.398;2024-03-08T03:16:45;3.60;99.90
2579;DHT22;1299;48.282;14.398;2024-03-08T03:19:12;3.70;99.90
2579;DHT22;1299;48.282;14.398;2024-03-08T03:21:40;3.60;99.90
2579;DHT22;1299;48.282;14.398;2024-03-08T03:24:08;3.50;99.90
2579;DHT22;1299;48.282;14.398;2024-03-08T03:26:36;3.60;99.90
2579;DHT22;1299;48.282;14.398;2024-03-08T03:29:05;3.10;99.90
2579;DHT22;1299;48.282;14.398;2024-03-08T03:31:35;3.30;99.90
2579;DHT22;1299;48.282;14.398;2024-03-08T03:34:03;3.40;99.90
2579;DHT22;1299;48.282;14.398;2024-03-08T03:36:30;3.50;99.90
2579;DHT22;1299;48.282;14.398;2024-03-08T03:38:57;3.30;99.90
2579;DHT22;1299;48.282;14.398;2024-03-08T03:41:36;3.50;99.90
2579;DHT22;1299;48.282;14.398;2024-03-08T03:44:04;3.40;99.90
2579;DHT22;1299;48.282;14.398;2024-03-08T03:46:32;3.40;99.90
2579;DHT22;1299;48.282;14.398;2024-03-08T03:49:01;3.50;99.90
2579;DHT22;1299;48.282;14.398;2024-03-08T03:51:29;3.40;99.90
2579;DHT22;1299;48.282;14.398;2024-03-08T03:53:56;3.20;99.90
2579;DHT22;1299;48.282;14.398;2024-03-08T03:56:25;3.30;99.90
2579;DHT22;1299;48.282;14.398;2024-03-08T03:58:53;3.20;99.90
2579;DHT22;1299;48.282;14.398;2024-03-08T04:01:20;3.20;99.90
2579;DHT22;1299;48.282;14.398;2024-03-08T04:03:47;3.30;99.90
2579;DHT22;1299;48.282;14.398;2024-03-08T04:06:16;3.00;99.90
2579;DHT22;1299;48.282;14.398;2024-03-08T04:08:43;3.20;99.90
2579;DHT22;1299;48.282;14.398;2024-03-08T04:11:10;3.10;99.90
2579;DHT22;1299;48.282;14.398;2024-03-08T04:13:37;3.10;99.90
2579;DHT22;1299;48.282;14.398;2024-03-08T04:16:05;3.20;99.90
2579;DHT22;1299;48.282;14.398;2024-03-08T04:18:34;3.30;99.90
2579;DHT22;1299;48.282;14.398;2024-03-08T04:21:04;3.30;99.90
2579;DHT22;1299;48.282;14.398;2024-03-08T04:23:34;3.20;99.90
2579;DHT22;1299;48.282;14.398;2024-03-08T04:26:02;2.90;99.90
2579;DHT22;1299;48.282;14.398;2024-03-08T04:28:30;3.20;99.90
2579;DHT22;1299;48.282;14.398;2024-03-08T04:30:57;3.30;99.90
2579;DHT22;1299;48.282;14.398;2024-03-08T04:33:26;3.20;99.90
2579;DHT22;1299;48.282;14.398;2024-03-08T04:35:53;3.40;99.90
2579;DHT22;1299;48.282;14.398;2024-03-08T04:38:21;3.60;99.90
2579;DHT22;1299;48.282;14.398;2024-03-08T04:40:50;3.70;99.90
2579;DHT22;1299;48.282;14.398;2024-03-08T04:43:17;3.70;99.90
2579;DHT22;1299;48.282;14.398;2024-03-08T04:45:46;3.00;99.90
2579;DHT22;1299;48.282;14.398;2024-03-08T04:48:14;3.30;99.90
2579;DHT22;1299;48.282;14.398;2024-03-08T04:50:41;3.30;99.90
2579;DHT22;1299;48.282;14.398;2024-03-08T04:53:08;3.40;99.90
2579;DHT22;1299;48.282;14.398;2024-03-08T04:55:35;3.40;99.90
2579;DHT22;1299;48.282;14.398;2024-03-08T04:58:04;3.40;99.90
2579;DHT22;1299;48.282;14.398;2024-03-08T05:00:32;3.60;99.90
2579;DHT22;1299;48.282;14.398;2024-03-08T05:02:59;3.60;99.90
2579;DHT22;1299;48.282;14.398;2024-03-08T05:05:26;3.60;99.90
2579;DHT22;1299;48.282;14.398;2024-03-08T05:07:54;3.60;99.90
2579;DHT22;1299;48.282;14.398;2024-03-08T05:10:21;3.40;99.90
2579;DHT22;1299;48.282;14.398;2024-03-08T05:12:49;3.30;99.90
2579;DHT22;1299;48.282;14.398;2024-03-08T05:15:17;3.00;99.90
2579;DHT22;1299;48.282;14.398;2024-03-08T05:17:46;3.20;99.90
2579;DHT22;1299;48.282;14.398;2024-03-08T05:20:13;3.10;99.90
2579;DHT22;1299;48.282;14.398;2024-03-08T05:22:40;3.30;99.90
2579;DHT22;1299;48.282;14.398;2024-03-08T05:25:08;3.20;99.90
2579;DHT22;1299;48.282;14.398;2024-03-08T05:27:36;3.40;99.90
2579;DHT22;1299;48.282;14.398;2024-03-08T05:30:03;3.50;99.90
2579;DHT22;1299;48.282;14.398;2024-03-08T05:32:32;3.30;99.90
2579;DHT22;1299;48.282;14.398;2024-03-08T05:34:59;3.20;99.90
2579;DHT22;1299;48.282;14.398;2024-03-08T05:37:27;3.20;99.90
2579;DHT22;1299;48.282;14.398;2024-03-08T05:39:54;3.20;99.90
2579;DHT22;1299;48.282;14.398;2024-03-08T05:42:21;3.10;99.90
2579;DHT22;1299;48.282;14.398;2024-03-08T05:44:48;3.20;99.90
2579;DHT22;1299;48.282;14.398;2024-03-08T05:47:15;3.30;99.90
2579;DHT22;1299;48.282;14.398;2024-03-08T05:49:45;3.40;99.90
2579;DHT22;1299;48.282;14.398;2024-03-08T05:52:12;3.50;99.90
2579;DHT22;1299;48.282;14.398;2024-03-08T05:54:40;3.40;99.90
2579;DHT22;1299;48.282;14.398;2024-03-08T05:57:09;3.50;99.90
2579;DHT22;1299;48.282;14.398;2024-03-08T05:59:36;3.50;99.90
2579;DHT22;1299;48.282;14.398;2024-03-08T06:02:03;3.60;99.90
2579;DHT22;1299;48.282;14.398;2024-03-08T06:04:30;3.60;99.90
2579;DHT22;1299;48.282;14.398;2024-03-08T06:06:59;3.70;99.90
2579;DHT22;1299;48.282;14.398;2024-03-08T06:09:26;3.80;99.90
2579;DHT22;1299;48.282;14.398;2024-03-08T06:11:53;4.30;99.90
2579;DHT22;1299;48.282;14.398;2024-03-08T06:14:20;5.40;99.90
2579;DHT22;1299;48.282;14.398;2024-03-08T06:16:47;6.60;99.90
2579;DHT22;1299;48.282;14.398;2024-03-08T06:19:15;7.20;99.90
2579;DHT22;1299;48.282;14.398;2024-03-08T06:21:42;8.20;99.90
2579;DHT22;1299;48.282;14.398;2024-03-08T06:24:11;8.90;99.90
2579;DHT22;1299;48.282;14.398;2024-03-08T06:26:38;8.60;99.90
2579;DHT22;1299;48.282;14.398;2024-03-08T06:29:05;9.10;99.90
2579;DHT22;1299;48.282;14.398;2024-03-08T06:31:33;9.00;99.90
2579;DHT22;1299;48.282;14.398;2024-03-08T06:34:00;10.30;99.90
2579;DHT22;1299;48.282;14.398;2024-03-08T06:36:27;10.90;99.90
2579;DHT22;1299;48.282;14.398;2024-03-08T06:38:54;11.20;99.90
2579;DHT22;1299;48.282;14.398;2024-03-08T06:41:24;11.60;99.90
2579;DHT22;1299;48.282;14.398;2024-03-08T06:43:52;11.70;99.90
2579;DHT22;1299;48.282;14.398;2024-03-08T06:46:23;11.90;99.80
2579;DHT22;1299;48.282;14.398;2024-03-08T06:48:50;12.30;99.30
2579;DHT22;1299;48.282;14.398;2024-03-08T06:51:17;13.10;96.60
2579;DHT22;1299;48.282;14.398;2024-03-08T06:53:44;13.60;96.00
2579;DHT22;1299;48.282;14.398;2024-03-08T06:56:11;13.70;93.90
2579;DHT22;1299;48.282;14.398;2024-03-08T06:58:40;14.00;94.60
2579;DHT22;1299;48.282;14.398;2024-03-08T07:01:08;14.40;93.70
2579;DHT22;1299;48.282;14.398;2024-03-08T07:03:41;11.90;93.20
2579;DHT22;1299;48.282;14.398;2024-03-08T07:06:10;13.50;93.80
2579;DHT22;1299;48.282;14.398;2024-03-08T07:08:37;14.60;92.70
2579;DHT22;1299;48.282;14.398;2024-03-08T07:11:05;15.10;92.40
2579;DHT22;1299;48.282;14.398;2024-03-08T07:13:32;15.40;91.50
2579;DHT22;1299;48.282;14.398;2024-03-08T07:16:00;15.70;90.30
2579;DHT22;1299;48.282;14.398;2024-03-08T07:18:27;15.80;90.30
2579;DHT22;1299;48.282;14.398;2024-03-08T07:20:55;16.30;90.00
2579;DHT22;1299;48.282;14.398;2024-03-08T07:23:22;16.60;88.60
2579;DHT22;1299;48.282;14.398;2024-03-08T07:26:06;16.60;87.10
2579;DHT22;1299;48.282;14.398;2024-03-08T07:28:33;15.80;87.80
2579;DHT22;1299;48.282;14.398;2024-03-08T07:31:02;16.20;87.60
2579;DHT22;1299;48.282;14.398;2024-03-08T07:33:42;15.60;90.60
2579;DHT22;1299;48.282;14.398;2024-03-08T07:36:09;15.40;91.90
2579;DHT22;1299;48.282;14.398;2024-03-08T07:38:36;13.60;88.40
2579;DHT22;1299;48.282;14.398;2024-03-08T07:41:04;12.60;91.60
2579;DHT22;1299;48.282;14.398;2024-03-08T07:43:31;12.70;92.90
2579;DHT22;1299;48.282;14.398;2024-03-08T07:45:58;13.00;92.40
2579;DHT22;1299;48.282;14.398;2024-03-08T07:48:26;12.70;93.20
2579;DHT22;1299;48.282;14.398;2024-03-08T07:50:54;12.40;93.70
2579;DHT22;1299;48.282;14.398;2024-03-08T07:53:21;10.30;93.10
2579;DHT22;1299;48.282;14.398;2024-03-08T07:55:50;9.60;99.90
2579;DHT22;1299;48.282;14.398;2024-03-08T07:58:17;10.60;99.90
2579;DHT22;1299;48.282;14.398;2024-03-08T08:00:44;10.70;99.90
2579;DHT22;1299;48.282;14.398;2024-03-08T08:03:11;10.90;99.90
2579;DHT22;1299;48.282;14.398;2024-03-08T08:05:40;10.70;99.90
2579;DHT22;1299;48.282;14.398;2024-03-08T08:08:08;8.30;99.90
2579;DHT22;1299;48.282;14.398;2024-03-08T08:10:36;7.60;99.90
2579;DHT22;1299;48.282;14.398;2024-03-08T08:13:03;7.20;99.90
2579;DHT22;1299;48.282;14.398;2024-03-08T08:15:31;7.60;99.90
2579;DHT22;1299;48.282;14.398;2024-03-08T08:18:00;7.10;99.90
2579;DHT22;1299;48.282;14.398;2024-03-08T08:20:28;8.10;99.90
2579;DHT22;1299;48.282;14.398;2024-03-08T08:22:57;8.50;99.90
2579;DHT22;1299;48.282;14.398;2024-03-08T08:25:24;7.70;99.90
2579;DHT22;1299;48.282;14.398;2024-03-08T08:27:51;7.30;99.90
2579;DHT22;1299;48.282;14.398;2024-03-08T08:30:19;6.80;99.90
2579;DHT22;1299;48.282;14.398;2024-03-08T08:32:46;6.90;99.90
2579;DHT22;1299;48.282;14.398;2024-03-08T08:35:14;7.10;99.90
2579;DHT22;1299;48.282;14.398;2024-03-08T08:37:41;7.20;99.90
2579;DHT22;1299;48.282;14.398;2024-03-08T08:40:12;7.10;99.90
2579;DHT22;1299;48.282;14.398;2024-03-08T08:42:43;6.80;99.90
2579;DHT22;1299;48.282;14.398;2024-03-08T08:45:12;7.10;99.90
2579;DHT22;1299;48.282;14.398;2024-03-08T08:47:39;7.10;99.90
2579;DHT22;1299;48.282;14.398;2024-03-08T08:50:08;6.90;99.90
2579;DHT22;1299;48.282;14.398;2024-03-08T08:52:37;6.90;99.90
2579;DHT22;1299;48.282;14.398;2024-03-08T08:55:05;6.80;99.90
2579;DHT22;1299;48.282;14.398;2024-03-08T08:57:34;7.00;99.90
2579;DHT22;1299;48.282;14.398;2024-03-08T09:00:02;7.00;99.90
2579;DHT22;1299;48.282;14.398;2024-03-08T09:02:32;6.90;99.90
2579;DHT22;1299;48.282;14.398;2024-03-08T09:05:00;6.90;99.90
2579;DHT22;1299;48.282;14.398;2024-03-08T09:07:27;6.90;99.90
2579;DHT22;1299;48.282;14.398;2024-03-08T09:09:54;7.30;99.90
2579;DHT22;1299;48.282;14.398;2024-03-08T09:12:23;7.40;99.90
2579;DHT22;1299;48.282;14.398;2024-03-08T09:14:52;7.70;99.90
2579;DHT22;1299;48.282;14.398;2024-03-08T09:17:19;7.20;99.90
2579;DHT22;1299;48.282;14.398;2024-03-08T09:19:47;7.10;99.90
2579;DHT22;1299;48.282;14.398;2024-03-08T09:22:14;7.60;99.90
2579;DHT22;1299;48.282;14.398;2024-03-08T09:24:42;7.40;99.90
2579;DHT22;1299;48.282;14.398;2024-03-08T09:27:09;7.30;99.90
2579;DHT22;1299;48.282;14.398;2024-03-08T09:29:37;7.60;99.90
2579;DHT22;1299;48.282;14.398;2024-03-08T09:32:05;7.30;99.90
2579;DHT22;1299;48.282;14.398;2024-03-08T09:34:33;7.10;99.90
2579;DHT22;1299;48.282;14.398;2024-03-08T09:37:01;7.10;99.90
2579;DHT22;1299;48.282;14.398;2024-03-08T09:39:50;7.00;99.90
2579;DHT22;1299;48.282;14.398;2024-03-08T09:46:03;6.90;99.90
2579;DHT22;1299;48.282;14.398;2024-03-08T09:48:34;7.20;99.90
2579;DHT22;1299;48.282;14.398;2024-03-08T09:51:02;7.30;99.90
2579;DHT22;1299;48.282;14.398;2024-03-08T09:53:53;7.50;99.90
2579;DHT22;1299;48.282;14.398;2024-03-08T09:57:04;7.60;99.90
2579;DHT22;1299;48.282;14.398;2024-03-08T09:59:49;8.00;99.90
2579;DHT22;1299;48.282;14.398;2024-03-08T10:02:28;7.50;99.90
2579;DHT22;1299;48.282;14.398;2024-03-08T10:04:57;7.50;99.90
2579;DHT22;1299;48.282;14.398;2024-03-08T10:07:25;7.90;99.90
2579;DHT22;1299;48.282;14.398;2024-03-08T10:09:52;8.10;99.90
2579;DHT22;1299;48.282;14.398;2024-03-08T10:12:20;7.80;99.90
2579;DHT22;1299;48.282;14.398;2024-03-08T10:15:08;7.70;99.90
2579;DHT22;1299;48.282;14.398;2024-03-08T10:17:41;7.90;99.90
2579;DHT22;1299;48.282;14.398;2024-03-08T10:20:15;8.10;99.90
2579;DHT22;1299;48.282;14.398;2024-03-08T10:22:51;8.00;99.90
2579;DHT22;1299;48.282;14.398;2024-03-08T10:25:23;8.40;99.90
2579;DHT22;1299;48.282;14.398;2024-03-08T10:27:51;8.40;99.90
2579;DHT22;1299;48.282;14.398;2024-03-08T10:30:18;8.20;99.90
2579;DHT22;1299;48.282;14.398;2024-03-08T10:32:48;8.10;99.90
2579;DHT22;1299;48.282;14.398;2024-03-08T10:35:17;8.50;99.90
2579;DHT22;1299;48.282;14.398;2024-03-08T10:37:48;8.20;99.90
2579;DHT22;1299;48.282;14.398;2024-03-08T10:40:17;8.60;99.90
2579;DHT22;1299;48.282;14.398;2024-03-08T10:42:52;8.20;99.90
2579;DHT22;1299;48.282;14.398;2024-03-08T10:45:29;8.30;99.90
2579;DHT22;1299;48.282;14.398;2024-03-08T10:48:08;8.40;99.90
2579;DHT22;1299;48.282;14.398;2024-03-08T10:50:56;8.30;99.90
2579;DHT22;1299;48.282;14.398;2024-03-08T10:53:28;8.50;99.90
2579;DHT22;1299;48.282;14.398;2024-03-08T10:56:00;8.30;99.90
2579;DHT22;1299;48.282;14.398;2024-03-08T10:58:36;8.60;99.90
2579;DHT22;1299;48.282;14.398;2024-03-08T11:01:14;8.70;99.90
2579;DHT22;1299;48.282;14.398;2024-03-08T11:03:48;8.80;99.90
2579;DHT22;1299;48.282;14.398;2024-03-08T11:06:29;8.90;99.90
2579;DHT22;1299;48.282;14.398;2024-03-08T11:09:00;8.60;99.90
2579;DHT22;1299;48.282;14.398;2024-03-08T11:11:31;8.40;99.90
2579;DHT22;1299;48.282;14.398;2024-03-08T11:14:00;8.80;99.90
2579;DHT22;1299;48.282;14.398;2024-03-08T11:16:47;8.90;99.90
2579;DHT22;1299;48.282;14.398;2024-03-08T11:19:26;8.90;99.90
2579;DHT22;1299;48.282;14.398;2024-03-08T11:22:04;8.80;99.90
2579;DHT22;1299;48.282;14.398;2024-03-08T11:24:39;8.70;99.90
2579;DHT22;1299;48.282;14.398;2024-03-08T11:27:12;8.70;99.90
2579;DHT22;1299;48.282;14.398;2024-03-08T11:30:01;8.90;99.90
2579;DHT22;1299;48.282;14.398;2024-03-08T11:32:46;8.80;99.90
2579;DHT22;1299;48.282;14.398;2024-03-08T11:35:23;8.90;99.90
2579;DHT22;1299;48.282;14.398;2024-03-08T11:37:54;9.00;99.90
2579;DHT22;1299;48.282;14.398;2024-03-08T11:40:41;9.20;99.90
2579;DHT22;1299;48.282;14.398;2024-03-08T11:43:09;9.30;99.90
2579;DHT22;1299;48.282;14.398;2024-03-08T11:45:36;9.50;99.90
2579;DHT22;1299;48.282;14.398;2024-03-08T11:48:05;9.40;99.90
2579;DHT22;1299;48.282;14.398;2024-03-08T11:50:42;9.40;99.90
2579;DHT22;1299;48.282;14.398;2024-03-08T11:53:39;9.50;99.90
2579;DHT22;1299;48.282;14.398;2024-03-08T11:56:37;9.50;99.90
2579;DHT22;1299;48.282;14.398;2024-03-08T11:59:49;9.60;99.90
2579;DHT22;1299;48.282;14.398;2024-03-08T12:02:32;9.70;99.90
2579;DHT22;1299;48.282;14.398;2024-03-08T12:05:04;9.50;99.90
2579;DHT22;1299;48.282;14.398;2024-03-08T12:07:36;9.60;99.90
2579;DHT22;1299;48.282;14.398;2024-03-08T12:10:17;9.60;99.90
2579;DHT22;1299;48.282;14.398;2024-03-08T12:12:45;10.00;99.90
2579;DHT22;1299;48.282;14.398;2024-03-08T12:15:14;9.80;99.90
2579;DHT22;1299;48.282;14.398;2024-03-08T12:17:44;9.70;99.90
2579;DHT22;1299;48.282;14.398;2024-03-08T12:20:15;9.70;99.90
2579;DHT22;1299;48.282;14.398;2024-03-08T12:22:43;9.80;99.90
2579;DHT22;1299;48.282;14.398;2024-03-08T12:25:11;9.70;99.90
2579;DHT22;1299;48.282;14.398;2024-03-08T12:27:41;9.50;99.90
2579;DHT22;1299;48.282;14.398;2024-03-08T12:30:20;9.70;99.90
2579;DHT22;1299;48.282;14.398;2024-03-08T12:32:50;9.60;99.90
2579;DHT22;1299;48.282;14.398;2024-03-08T12:35:19;9.50;99.90
2579;DHT22;1299;48.282;14.398;2024-03-08T12:37:49;9.60;99.90
2579;DHT22;1299;48.282;14.398;2024-03-08T12:40:17;9.50;99.90
2579;DHT22;1299;48.282;14.398;2024-03-08T12:42:46;9.60;99.90
2579;DHT22;1299;48.282;14.398;2024-03-08T12:45:14;9.80;99.90
2579;DHT22;1299;48.282;14.398;2024-03-08T12:47:41;9.60;99.90
2579;DHT22;1299;48.282;14.398;2024-03-08T12:50:10;9.80;99.90
2579;DHT22;1299;48.282;14.398;2024-03-08T12:52:37;9.50;99.90
2579;DHT22;1299;48.282;14.398;2024-03-08T12:55:04;9.50;99.90
2579;DHT22;1299;48.282;14.398;2024-03-08T12:57:34;9.70;99.90
2579;DHT22;1299;48.282;14.398;2024-03-08T13:00:05;9.80;99.90
2579;DHT22;1299;48.282;14.398;2024-03-08T13:02:39;10.00;99.90
2579;DHT22;1299;48.282;14.398;2024-03-08T13:05:08;10.20;99.90
2579;DHT22;1299;48.282;14.398;2024-03-08T13:07:37;9.90;99.30
2579;DHT22;1299;48.282;14.398;2024-03-08T13:10:05;10.10;99.40
2579;DHT22;1299;48.282;14.398;2024-03-08T13:12:33;10.20;99.40
2579;DHT22;1299;48.282;14.398;2024-03-08T13:15:05;10.30;99.90
2579;DHT22;1299;48.282;14.398;2024-03-08T13:17:34;10.30;99.90
2579;DHT22;1299;48.282;14.398;2024-03-08T13:20:02;10.50;99.80
2579;DHT22;1299;48.282;14.398;2024-03-08T13:22:31;10.30;97.70
2579;DHT22;1299;48.282;14.398;2024-03-08T13:24:58;10.00;98.10
2579;DHT22;1299;48.282;14.398;2024-03-08T13:27:27;10.20;99.50
2579;DHT22;1299;48.282;14.398;2024-03-08T13:29:54;10.30;99.90
2579;DHT22;1299;48.282;14.398;2024-03-08T13:32:23;10.30;97.20
2579;DHT22;1299;48.282;14.398;2024-03-08T13:34:51;10.50;97.80
2579;DHT22;1299;48.282;14.398;2024-03-08T13:37:20;10.20;96.80
2579;DHT22;1299;48.282;14.398;2024-03-08T13:39:47;10.10;97.10
2579;DHT22;1299;48.282;14.398;2024-03-08T13:42:15;10.20;99.00
2579;DHT22;1299;48.282;14.398;2024-03-08T13:44:45;10.40;98.50
2579;DHT22;1299;48.282;14.398;2024-03-08T13:47:13;10.50;98.70
2579;DHT22;1299;48.282;14.398;2024-03-08T13:49:42;10.70;99.00
2579;DHT22;1299;48.282;14.398;2024-03-08T13:52:09;10.80;99.40
2579;DHT22;1299;48.282;14.398;2024-03-08T13:54:38;11.00;97.40
2579;DHT22;1299;48.282;14.398;2024-03-08T13:57:05;10.70;96.30
2579;DHT22;1299;48.282;14.398;2024-03-08T13:59:34;10.60;97.80
2579;DHT22;1299;48.282;14.398;2024-03-08T14:02:01;10.80;98.20
2579;DHT22;1299;48.282;14.398;2024-03-08T14:04:28;10.50;97.90
2579;DHT22;1299;48.282;14.398;2024-03-08T14:06:57;10.70;95.90
2579;DHT22;1299;48.282;14.398;2024-03-08T14:09:29;10.30;95.90
2579;DHT22;1299;48.282;14.398;2024-03-08T14:11:56;10.30;96.60
2579;DHT22;1299;48.282;14.398;2024-03-08T14:14:24;10.30;97.10
2579;DHT22;1299;48.282;14.398;2024-03-08T14:16:51;10.50;96.80
2579;DHT22;1299;48.282;14.398;2024-03-08T14:19:21;10.50;96.30
2579;DHT22;1299;48.282;14.398;2024-03-08T14:21:48;10.50;96.00
2579;DHT22;1299;48.282;14.398;2024-03-08T14:24:18;10.40;96.10
2579;DHT22;1299;48.282;14.398;2024-03-08T14:26:45;10.20;96.70
2579;DHT22;1299;48.282;14.398;2024-03-08T14:29:14;10.30;97.70
2579;DHT22;1299;48.282;14.398;2024-03-08T14:31:41;10.60;97.40
2579;DHT22;1299;48.282;14.398;2024-03-08T14:34:09;10.30;97.30
2579;DHT22;1299;48.282;14.398;2024-03-08T14:36:36;10.30;97.10
2579;DHT22;1299;48.282;14.398;2024-03-08T14:39:03;10.40;97.20
2579;DHT22;1299;48.282;14.398;2024-03-08T14:41:32;10.30;97.50
2579;DHT22;1299;48.282;14.398;2024-03-08T14:43:59;10.40;97.60
2579;DHT22;1299;48.282;14.398;2024-03-08T14:46:27;10.50;97.90
2579;DHT22;1299;48.282;14.398;2024-03-08T14:48:55;10.50;97.30
2579;DHT22;1299;48.282;14.398;2024-03-08T14:51:23;10.70;97.40
2579;DHT22;1299;48.282;14.398;2024-03-08T14:53:52;10.60;97.20
2579;DHT22;1299;48.282;14.398;2024-03-08T14:56:20;10.30;98.20
2579;DHT22;1299;48.282;14.398;2024-03-08T14:58:49;10.40;98.70
2579;DHT22;1299;48.282;14.398;2024-03-08T15:01:17;10.30;99.00
2579;DHT22;1299;48.282;14.398;2024-03-08T15:03:48;10.40;97.90
2579;DHT22;1299;48.282;14.398;2024-03-08T15:06:15;10.30;97.60
2579;DHT22;1299;48.282;14.398;2024-03-08T15:08:47;10.20;98.30
2579;DHT22;1299;48.282;14.398;2024-03-08T15:11:14;10.30;98.90
2579;DHT22;1299;48.282;14.398;2024-03-08T15:13:48;10.30;98.40
2579;DHT22;1299;48.282;14.398;2024-03-08T15:16:19;10.30;98.70
2579;DHT22;1299;48.282;14.398;2024-03-08T15:18:49;10.10;98.90
2579;DHT22;1299;48.282;14.398;2024-03-08T15:21:17;10.10;99.70
2579;DHT22;1299;48.282;14.398;2024-03-08T15:23:45;10.20;99.90
2579;DHT22;1299;48.282;14.398;2024-03-08T15:26:15;10.40;98.50
2579;DHT22;1299;48.282;14.398;2024-03-08T15:28:43;10.20;99.00
2579;DHT22;1299;48.282;14.398;2024-03-08T15:31:12;10.50;99.70
2579;DHT22;1299;48.282;14.398;2024-03-08T15:33:40;10.20;97.70
2579;DHT22;1299;48.282;14.398;2024-03-08T15:36:14;10.00;97.30
2579;DHT22;1299;48.282;14.398;2024-03-08T15:38:42;9.90;98.60
2579;DHT22;1299;48.282;14.398;2024-03-08T15:41:12;10.00;99.50
2579;DHT22;1299;48.282;14.398;2024-03-08T15:43:40;10.10;98.20
2579;DHT22;1299;48.282;14.398;2024-03-08T15:46:08;10.10;98.90
2579;DHT22;1299;48.282;14.398;2024-03-08T15:48:38;10.00;99.10
2579;DHT22;1299;48.282;14.398;2024-03-08T15:51:15;10.00;99.20
2579;DHT22;1299;48.282;14.398;2024-03-08T15:53:43;10.10;99.90
2579;DHT22;1299;48.282;14.398;2024-03-08T15:56:18;9.90;99.90
2579;DHT22;1299;48.282;14.398;2024-03-08T15:58:46;9.80;99.90
2579;DHT22;1299;48.282;14.398;2024-03-08T16:01:13;10.10;99.90
2579;DHT22;1299;48.282;14.398;2024-03-08T16:03:44;9.90;99.90
2579;DHT22;1299;48.282;14.398;2024-03-08T16:06:14;9.80;99.90
2579;DHT22;1299;48.282;14.398;2024-03-08T16:08:41;9.90;99.90
2579;DHT22;1299;48.282;14.398;2024-03-08T16:11:08;9.90;99.90
2579;DHT22;1299;48.282;14.398;2024-03-08T16:13:36;9.90;99.90
2579;DHT22;1299;48.282;14.398;2024-03-08T16:16:05;9.90;99.90